createdAt,value
2023-04-03T00:00:15.823Z,71.81
2023-04-03T00:02:42.730Z,71.80
2023-04-03T00:05:09.347Z,71.49
2023-04-03T00:07:36.232Z,71.73
2023-04-03T00:10:02.860Z,72.32
2023-04-03T00:12:29.635Z,71.67
2023-04-03T00:14:56.019Z,71.70
2023-04-03T00:17:22.686Z,72.17
2023-04-03T00:19:49.077Z,72.26
2023-04-03T00:22:15.957Z,72.29
2023-04-03T00:24:42.929Z,72.51
2023-04-03T00:27:09.466Z,72.42
2023-04-03T00:29:35.919Z,72.79
2023-04-03T00:32:02.651Z,72.70
2023-04-03T00:34:29.254Z,72.74
2023-04-03T00:36:56.051Z,72.79
2023-04-03T00:39:22.624Z,72.70
2023-04-03T00:41:49.092Z,72.76
2023-04-03T00:44:22.781Z,72.64
2023-04-03T00:46:49.264Z,72.53
2023-04-03T00:49:15.863Z,72.39
2023-04-03T00:51:42.669Z,72.41
2023-04-03T00:54:09.485Z,72.97
2023-04-03T00:56:37.856Z,73.09
2023-04-03T00:59:12.833Z,72.90
2023-04-03T01:01:39.792Z,72.83
2023-04-03T01:04:07.350Z,73.22
2023-04-03T01:06:37.776Z,72.83
2023-04-03T01:09:05.554Z,73.52
2023-04-03T01:11:33.856Z,74.17
2023-04-03T01:14:01.314Z,73.67
2023-04-03T01:16:28.837Z,74.25
2023-04-03T01:18:55.390Z,73.57
2023-04-03T01:21:41.247Z,74.38
2023-04-03T01:24:30.177Z,74.21
2023-04-03T01:26:56.848Z,74.20
2023-04-03T01:29:23.687Z,74.45
2023-04-03T01:31:56.954Z,75.11
2023-04-03T01:34:24.881Z,74.86
2023-04-03T01:36:52.243Z,75.45
2023-04-03T01:39:19.090Z,75.43
2023-04-03T01:41:45.927Z,75.54
2023-04-03T01:44:13.026Z,75.36
2023-04-03T01:46:39.542Z,75.46
2023-04-03T01:49:06.253Z,75.67
2023-04-03T01:51:32.720Z,75.46
2023-04-03T01:53:59.471Z,75.87
2023-04-03T01:56:26.107Z,75.57
2023-04-03T01:58:53.138Z,75.62
2023-04-03T02:01:19.670Z,75.76
2023-04-03T02:03:46.166Z,75.65
2023-04-03T02:06:12.948Z,75.64
2023-04-03T02:08:39.834Z,75.83
2023-04-03T02:11:06.365Z,76.42
2023-04-03T02:13:32.843Z,76.53
2023-04-03T02:16:00.268Z,76.20
2023-04-03T02:18:26.732Z,76.44
2023-04-03T02:20:53.181Z,76.77
2023-04-03T02:23:19.742Z,76.87
2023-04-03T02:25:46.299Z,76.81
2023-04-03T02:28:13.080Z,76.30
2023-04-03T02:30:39.868Z,77.62
2023-04-03T02:33:06.450Z,77.51
2023-04-03T02:35:32.950Z,76.77
2023-04-03T02:37:59.372Z,77.51
2023-04-03T02:40:26.129Z,77.99
2023-04-03T02:42:52.489Z,77.99
2023-04-03T02:45:18.886Z,77.79
2023-04-03T02:47:45.366Z,77.86
2023-04-03T02:50:12.250Z,78.10
2023-04-03T02:52:38.662Z,78.84
2023-04-03T02:55:06.950Z,79.10
2023-04-03T02:57:33.375Z,79.28
2023-04-03T02:59:59.810Z,78.79
2023-04-03T03:02:26.272Z,78.83
2023-04-03T03:04:53.086Z,79.37
2023-04-03T03:07:19.630Z,79.34
2023-04-03T03:09:46.109Z,79.71
2023-04-03T03:12:12.535Z,79.35
2023-04-03T03:14:39.069Z,79.73
2023-04-03T03:17:05.616Z,80.04
2023-04-03T03:19:32.084Z,79.39
2023-04-03T03:21:58.520Z,79.91
2023-04-03T03:24:24.946Z,78.70
2023-04-03T03:26:51.394Z,78.80
2023-04-03T03:29:17.863Z,78.83
2023-04-03T03:31:44.301Z,79.08
2023-04-03T03:34:10.888Z,78.97
2023-04-03T03:36:37.357Z,79.04
2023-04-03T03:39:04.011Z,79.56
2023-04-03T03:41:30.514Z,79.27
2023-04-03T03:43:56.942Z,79.70
2023-04-03T03:46:23.793Z,80.61
2023-04-03T03:48:50.326Z,80.77
2023-04-03T03:51:16.836Z,81.14
2023-04-03T03:53:43.250Z,80.84
2023-04-03T03:56:10.521Z,81.30
2023-04-03T03:58:36.978Z,81.32
2023-04-03T04:01:06.554Z,81.20
2023-04-03T04:03:33.591Z,80.46
2023-04-03T04:06:00.120Z,80.19
2023-04-03T04:08:26.715Z,80.82
2023-04-03T04:10:53.135Z,81.03
2023-04-03T04:13:19.549Z,81.85
2023-04-03T04:15:46.527Z,81.75
2023-04-03T04:18:12.946Z,82.88
2023-04-03T04:20:39.624Z,82.27
2023-04-03T04:23:06.005Z,82.15
2023-04-03T04:25:32.453Z,81.65
2023-04-03T04:27:58.841Z,81.67
2023-04-03T04:30:25.586Z,81.39
2023-04-03T04:32:52.069Z,80.88
2023-04-03T04:35:18.612Z,80.43
2023-04-03T04:37:45.633Z,81.07
2023-04-03T04:40:12.389Z,81.87
2023-04-03T04:42:38.822Z,82.06
2023-04-03T04:45:06.204Z,82.90
2023-04-03T04:47:32.613Z,82.52
2023-04-03T04:49:59.388Z,83.15
2023-04-03T04:52:26.026Z,83.39
2023-04-03T04:54:52.412Z,83.12
2023-04-03T04:57:18.869Z,82.00
2023-04-03T04:59:45.336Z,81.90
2023-04-03T05:02:12.052Z,82.46
2023-04-03T05:04:38.509Z,82.96
2023-04-03T05:07:05.350Z,83.06
2023-04-03T05:09:31.763Z,83.40
2023-04-03T05:11:58.187Z,83.10
2023-04-03T05:14:24.755Z,83.31
2023-04-03T05:16:54.715Z,83.09
2023-04-03T05:19:21.557Z,82.62
2023-04-03T05:21:48.455Z,83.13
2023-04-03T05:24:16.408Z,83.00
2023-04-03T05:26:43.525Z,82.58
2023-04-03T05:29:10.196Z,83.40
2023-04-03T05:31:37.103Z,82.71
2023-04-03T05:34:03.687Z,82.85
2023-04-03T05:36:30.403Z,82.83
2023-04-03T05:38:57.371Z,82.98
2023-04-03T05:41:24.158Z,82.30
2023-04-03T05:43:50.547Z,82.30
2023-04-03T05:46:19.910Z,83.20
2023-04-03T05:48:46.401Z,82.91
2023-04-03T05:51:24.410Z,82.70
2023-04-03T05:53:56.938Z,82.64
2023-04-03T05:56:23.608Z,81.74
2023-04-03T05:58:49.999Z,81.38
2023-04-03T06:01:17.073Z,81.08
2023-04-03T06:03:43.651Z,80.78
2023-04-03T06:06:15.022Z,80.94
2023-04-03T06:08:41.425Z,81.15
2023-04-03T06:11:09.650Z,81.17
2023-04-03T06:13:36.172Z,81.24
2023-04-03T06:16:03.952Z,80.25
2023-04-03T06:18:31.032Z,80.64
2023-04-03T06:20:57.523Z,80.10
2023-04-03T06:23:23.927Z,80.36
2023-04-03T06:25:50.337Z,79.39
2023-04-03T06:28:16.748Z,80.13
2023-04-03T06:30:43.318Z,80.10
2023-04-03T06:33:09.812Z,79.96
2023-04-03T06:35:36.439Z,79.69
2023-04-03T06:38:05.015Z,78.88
2023-04-03T06:40:31.720Z,78.71
2023-04-03T06:42:58.101Z,77.81
2023-04-03T06:45:26.437Z,77.67
2023-04-03T06:47:52.936Z,77.32
2023-04-03T06:50:19.403Z,76.99
2023-04-03T06:52:45.923Z,77.64
2023-04-03T06:55:12.821Z,76.92
2023-04-03T06:57:39.378Z,76.81
2023-04-03T07:00:08.059Z,76.65
2023-04-03T07:02:34.542Z,76.10
2023-04-03T07:05:00.976Z,75.47
2023-04-03T07:07:27.382Z,74.97
2023-04-03T07:09:54.442Z,74.93
2023-04-03T07:12:21.399Z,74.96
2023-04-03T07:14:47.905Z,74.73
2023-04-03T07:17:14.292Z,74.50
2023-04-03T07:19:41.081Z,73.80
2023-04-03T07:22:07.624Z,73.23
2023-04-03T07:24:34.295Z,72.83
2023-04-03T07:27:02.471Z,72.34
2023-04-03T07:29:28.861Z,71.86
2023-04-03T07:31:56.901Z,72.19
2023-04-03T07:34:23.644Z,72.90
2023-04-03T07:36:49.998Z,72.90
2023-04-03T07:39:16.491Z,72.50
2023-04-03T07:41:42.955Z,72.80
2023-04-03T07:44:11.100Z,70.08
2023-04-03T07:46:38.057Z,70.08
2023-04-03T07:49:04.755Z,69.28
2023-04-03T07:51:31.810Z,67.93
2023-04-03T07:53:58.225Z,67.87
2023-04-03T07:56:26.050Z,67.18
2023-04-03T07:58:52.496Z,67.51
2023-04-03T08:01:18.896Z,66.77
2023-04-03T08:03:45.395Z,66.89
2023-04-03T08:06:15.931Z,64.93
2023-04-03T08:08:42.780Z,64.46
2023-04-03T08:11:11.469Z,64.22
2023-04-03T08:13:38.024Z,64.37
2023-04-03T08:16:18.869Z,63.95
2023-04-03T08:18:45.617Z,63.87
2023-04-03T08:21:13.083Z,63.74
2023-04-03T08:23:42.484Z,63.87
2023-04-03T08:26:11.276Z,62.92
2023-04-03T08:28:38.443Z,64.07
2023-04-03T08:31:11.963Z,63.39
2023-04-03T08:33:40.301Z,63.52
2023-04-03T08:36:09.286Z,62.47
2023-04-03T08:38:38.431Z,62.06
2023-04-03T08:41:31.383Z,61.05
2023-04-03T08:44:03.826Z,60.74
2023-04-03T08:47:09.185Z,60.22
2023-04-03T08:49:48.757Z,61.99
2023-04-03T08:52:19.794Z,60.08
2023-04-03T08:54:55.801Z,60.07
2023-04-03T08:57:31.658Z,59.60
2023-04-03T09:00:01.573Z,57.95
2023-04-03T09:02:42.586Z,55.13
2023-04-03T09:05:27.850Z,55.32
2023-04-03T09:08:22.055Z,54.78
2023-04-03T09:10:50.595Z,54.63
2023-04-03T09:13:44.621Z,55.23
2023-04-03T09:16:29.312Z,54.12
2023-04-03T09:19:10.224Z,54.27
2023-04-03T09:21:39.404Z,52.98
2023-04-03T09:24:08.671Z,53.62
2023-04-03T09:26:42.012Z,52.81
2023-04-03T09:29:09.222Z,52.24
2023-04-03T09:31:44.360Z,50.15
2023-04-03T09:34:33.982Z,50.18
2023-04-03T09:37:07.080Z,51.12
2023-04-03T09:39:50.909Z,50.34
2023-04-03T09:42:21.132Z,49.53
2023-04-03T09:44:58.618Z,48.90
2023-04-03T09:47:31.014Z,48.77
2023-04-03T09:50:28.853Z,47.11
2023-04-03T09:52:55.388Z,47.64
2023-04-03T09:55:28.419Z,46.49
2023-04-03T09:58:03.428Z,47.74
2023-04-03T10:00:34.997Z,47.33
2023-04-03T10:03:02.606Z,47.23
2023-04-03T10:05:36.649Z,47.04
2023-04-03T10:08:24.908Z,46.91
2023-04-03T10:11:09.148Z,47.48
2023-04-03T10:13:45.163Z,48.27
2023-04-03T10:16:21.462Z,46.43
2023-04-03T10:18:59.832Z,45.08
2023-04-03T10:21:46.235Z,45.76
2023-04-03T10:24:25.684Z,45.21
2023-04-03T10:27:04.323Z,44.69
2023-04-03T10:29:40.034Z,47.11
2023-04-03T10:32:40.350Z,45.87
2023-04-03T10:35:20.080Z,45.26
2023-04-03T10:38:14.479Z,45.50
2023-04-03T10:41:18.027Z,45.16
2023-04-03T10:44:07.343Z,46.32
2023-04-03T10:46:44.821Z,45.77
2023-04-03T10:49:31.869Z,44.58
2023-04-03T10:52:17.386Z,44.18
2023-04-03T10:55:08.352Z,42.22
2023-04-03T10:57:35.990Z,42.77
2023-04-03T11:00:10.958Z,42.97
2023-04-03T11:02:45.910Z,41.71
2023-04-03T11:05:40.613Z,41.71
2023-04-03T11:08:31.066Z,42.51
2023-04-03T11:11:12.049Z,42.80
2023-04-03T11:13:44.768Z,42.17
2023-04-03T11:16:20.273Z,42.95
2023-04-03T11:18:55.743Z,41.94
2023-04-03T11:21:25.407Z,41.69
2023-04-03T11:23:54.694Z,42.13
2023-04-03T11:26:26.643Z,41.87
2023-04-03T11:28:57.252Z,43.39
2023-04-03T11:31:41.285Z,43.04
2023-04-03T11:34:39.337Z,42.54
2023-04-03T11:37:15.426Z,41.96
2023-04-03T11:39:52.771Z,42.10
2023-04-03T11:42:38.753Z,41.61
2023-04-03T11:45:24.553Z,40.83
2023-04-03T11:47:57.033Z,41.08
2023-04-03T11:50:35.986Z,40.76
2023-04-03T11:53:09.111Z,40.30
2023-04-03T11:55:36.824Z,40.69
2023-04-03T11:58:18.451Z,41.25
2023-04-03T12:00:45.031Z,41.15
2023-04-03T12:03:26.534Z,41.00
2023-04-03T12:06:16.429Z,39.83
2023-04-03T12:08:43.127Z,40.58
2023-04-03T12:11:09.454Z,40.69
2023-04-03T12:13:37.582Z,41.58
2023-04-03T12:16:06.227Z,40.67
2023-04-03T12:18:38.969Z,41.24
2023-04-03T12:21:05.442Z,40.12
2023-04-03T12:23:39.319Z,39.14
2023-04-03T12:26:28.256Z,39.01
2023-04-03T12:29:00.146Z,40.57
2023-04-03T12:31:41.319Z,40.03
2023-04-03T12:34:15.740Z,38.36
2023-04-03T12:36:54.199Z,39.77
2023-04-03T12:39:47.250Z,39.90
2023-04-03T12:42:43.399Z,39.51
2023-04-03T12:45:21.706Z,39.65
2023-04-03T12:47:51.899Z,40.19
2023-04-03T12:50:30.862Z,40.79
2023-04-03T12:53:05.238Z,40.48
2023-04-03T12:55:31.885Z,40.91
2023-04-03T12:57:58.511Z,40.95
2023-04-03T13:00:35.227Z,40.57
2023-04-03T13:03:06.824Z,41.03
2023-04-03T13:05:36.751Z,41.48
2023-04-03T13:08:13.180Z,40.21
2023-04-03T13:10:53.394Z,41.32
2023-04-03T13:13:20.275Z,41.05
2023-04-03T13:15:52.303Z,40.55
2023-04-03T13:18:30.234Z,40.30
2023-04-03T13:21:07.267Z,40.28
2023-04-03T13:23:37.426Z,39.60
2023-04-03T13:26:06.696Z,40.80
2023-04-03T13:28:34.861Z,40.80
2023-04-03T13:31:16.118Z,40.45
2023-04-03T13:33:58.766Z,40.21
2023-04-03T13:36:47.408Z,39.58
2023-04-03T13:39:13.733Z,40.48
2023-04-03T13:41:44.378Z,40.05
2023-04-03T13:44:24.309Z,39.45
2023-04-03T13:46:59.685Z,40.41
2023-04-03T13:49:36.131Z,41.00
2023-04-03T13:52:26.623Z,40.16
2023-04-03T13:54:57.266Z,40.07
2023-04-03T13:57:24.086Z,39.94
2023-04-03T13:59:51.364Z,40.21
2023-04-03T14:02:33.131Z,40.22
2023-04-03T14:05:02.849Z,40.52
2023-04-03T14:07:31.958Z,40.61
2023-04-03T14:09:59.355Z,40.61
2023-04-03T14:12:34.126Z,40.14
2023-04-03T14:15:28.963Z,41.14
2023-04-03T14:17:56.613Z,40.75
2023-04-03T14:20:26.943Z,40.72
2023-04-03T14:22:54.680Z,40.19
2023-04-03T14:25:25.137Z,40.19
2023-04-03T14:27:53.322Z,39.15
2023-04-03T14:30:26.172Z,39.80
2023-04-03T14:32:52.729Z,40.68
2023-04-03T14:35:19.871Z,40.77
2023-04-03T14:37:47.431Z,39.98
2023-04-03T14:40:23.679Z,40.28
2023-04-03T14:42:50.413Z,39.87
2023-04-03T14:45:18.512Z,39.83
2023-04-03T14:47:52.532Z,39.87
2023-04-03T14:50:24.206Z,41.07
2023-04-03T14:52:54.552Z,39.51
2023-04-03T14:55:23.618Z,40.21
2023-04-03T14:57:50.144Z,39.82
2023-04-03T15:00:19.638Z,39.62
2023-04-03T15:02:47.274Z,40.10
2023-04-03T15:05:14.946Z,39.55
2023-04-03T15:07:44.324Z,39.23
2023-04-03T15:10:19.040Z,39.54
2023-04-03T15:12:46.089Z,39.11
2023-04-03T15:15:12.995Z,39.37
2023-04-03T15:17:40.000Z,39.38
2023-04-03T15:20:19.032Z,40.38
2023-04-03T15:22:45.703Z,40.04
2023-04-03T15:25:13.046Z,39.63
2023-04-03T15:27:41.274Z,39.86
2023-04-03T15:30:11.993Z,39.34
2023-04-03T15:32:38.396Z,39.73
2023-04-03T15:35:06.006Z,40.40
2023-04-03T15:37:32.516Z,39.63
2023-04-03T15:39:59.059Z,40.17
2023-04-03T15:42:25.503Z,39.89
2023-04-03T15:44:52.010Z,38.34
2023-04-03T15:47:18.652Z,38.98
2023-04-03T15:49:45.264Z,39.27
2023-04-03T15:52:11.779Z,39.80
2023-04-03T15:54:38.167Z,39.92
2023-04-03T15:57:04.598Z,39.99
2023-04-03T15:59:32.948Z,39.80
2023-04-03T16:02:02.063Z,40.42
2023-04-03T16:04:28.791Z,40.57
2023-04-03T16:06:55.268Z,39.87
2023-04-03T16:09:21.682Z,40.06
2023-04-03T16:11:48.139Z,39.96
2023-04-03T16:14:14.647Z,39.96
2023-04-03T16:16:41.431Z,41.23
2023-04-03T16:19:08.053Z,41.23
2023-04-03T16:21:34.681Z,41.63
2023-04-03T16:24:02.065Z,41.27
2023-04-03T16:26:28.844Z,41.16
2023-04-03T16:28:55.566Z,40.62
2023-04-03T16:31:23.702Z,40.39
2023-04-03T16:33:50.453Z,41.11
2023-04-03T16:36:16.966Z,40.82
2023-04-03T16:38:43.430Z,40.80
2023-04-03T16:41:10.150Z,41.05
2023-04-03T16:43:37.777Z,41.43
2023-04-03T16:46:04.551Z,41.26
2023-04-03T16:48:31.541Z,41.31
2023-04-03T16:50:58.628Z,41.76
2023-04-03T16:53:26.159Z,41.68
2023-04-03T16:55:52.632Z,41.99
2023-04-03T16:58:19.852Z,42.29
2023-04-03T17:00:48.289Z,42.72
2023-04-03T17:03:14.785Z,42.58
2023-04-03T17:05:41.364Z,43.19
2023-04-03T17:08:08.122Z,43.13
2023-04-03T17:10:36.331Z,42.94
2023-04-03T17:13:02.876Z,43.67
2023-04-03T17:15:29.273Z,43.31
2023-04-03T17:17:55.866Z,43.44
2023-04-03T17:20:22.565Z,43.80
2023-04-03T17:22:48.997Z,43.49
2023-04-03T17:25:16.003Z,43.61
2023-04-03T17:27:42.415Z,44.11
2023-04-03T17:30:09.467Z,44.20
2023-04-03T17:32:36.120Z,44.59
2023-04-03T17:35:02.557Z,44.69
2023-04-03T17:37:28.984Z,44.70
2023-04-03T17:39:55.402Z,44.98
2023-04-03T17:42:21.805Z,44.91
2023-04-03T17:44:48.190Z,45.13
2023-04-03T17:47:14.663Z,44.66
2023-04-03T17:49:41.146Z,44.82
2023-04-03T17:52:07.898Z,44.70
2023-04-03T17:54:34.369Z,45.27
2023-04-03T17:57:00.924Z,45.40
2023-04-03T17:59:28.206Z,44.60
2023-04-03T18:01:55.917Z,44.55
2023-04-03T18:04:22.395Z,44.59
2023-04-03T18:06:51.903Z,44.42
2023-04-03T18:09:20.860Z,43.82
2023-04-03T18:11:48.437Z,44.11
2023-04-03T18:14:17.940Z,44.31
2023-04-03T18:16:44.387Z,44.14
2023-04-03T18:22:03.426Z,44.66
2023-04-03T18:24:33.079Z,44.47
2023-04-03T18:27:06.214Z,44.90
2023-04-03T18:29:35.361Z,45.00
2023-04-03T18:32:04.779Z,44.48
2023-04-03T18:34:32.022Z,44.88
2023-04-03T18:36:58.696Z,44.36
2023-04-03T18:39:26.873Z,44.31
2023-04-03T18:41:53.688Z,44.12
2023-04-03T18:44:24.866Z,44.15
2023-04-03T18:46:53.592Z,43.96
2023-04-03T18:49:20.809Z,43.94
2023-04-03T18:51:47.457Z,43.27
2023-04-03T18:54:13.929Z,44.21
2023-04-03T18:56:40.476Z,43.92
2023-04-03T18:59:07.104Z,43.68
2023-04-03T19:01:34.516Z,44.05
2023-04-03T19:04:01.270Z,44.67
2023-04-03T19:06:28.138Z,44.70
2023-04-03T19:08:54.726Z,44.77
2023-04-03T19:11:21.297Z,44.59
2023-04-03T19:14:04.438Z,44.87
2023-04-03T19:16:34.249Z,45.43
2023-04-03T19:19:01.556Z,44.96
2023-04-03T19:21:28.329Z,45.15
2023-04-03T19:23:58.957Z,45.57
2023-04-03T19:26:29.085Z,45.93
2023-04-03T19:28:55.586Z,45.61
2023-04-03T19:31:23.193Z,45.95
2023-04-03T19:33:50.574Z,46.17
2023-04-03T19:36:17.642Z,46.07
2023-04-03T19:38:44.480Z,46.27
2023-04-03T19:41:14.700Z,46.97
2023-04-03T19:43:41.975Z,47.31
2023-04-03T19:46:09.647Z,47.74
2023-04-03T19:48:36.636Z,48.77
2023-04-03T19:51:04.751Z,49.20
2023-04-03T19:53:32.083Z,49.81
2023-04-03T19:55:58.661Z,50.31
2023-04-03T19:58:27.930Z,50.51
2023-04-03T20:00:55.459Z,51.44
2023-04-03T20:03:23.658Z,52.20
2023-04-03T20:05:51.021Z,52.02
2023-04-03T20:08:17.553Z,52.54
2023-04-03T20:10:44.442Z,52.93
2023-04-03T20:13:12.379Z,53.55
2023-04-03T20:15:42.059Z,53.46
2023-04-03T20:18:11.294Z,53.17
2023-04-03T20:20:42.143Z,53.43
2023-04-03T20:23:11.219Z,54.18
2023-04-03T20:25:54.143Z,54.18
2023-04-03T20:28:25.242Z,54.55
2023-04-03T20:30:54.430Z,54.87
2023-04-03T20:33:22.214Z,55.57
2023-04-03T20:35:49.492Z,55.37
2023-04-03T20:38:16.372Z,55.72
2023-04-03T20:40:42.929Z,55.92
2023-04-03T20:43:09.484Z,55.91
2023-04-03T20:45:36.214Z,56.24
2023-04-03T20:48:04.029Z,56.15
2023-04-03T20:50:30.934Z,56.51
2023-04-03T20:52:57.742Z,56.48
2023-04-03T20:55:24.479Z,56.54
2023-04-03T20:57:54.617Z,56.56
2023-04-03T21:00:21.682Z,56.39
2023-04-03T21:02:48.270Z,56.29
2023-04-03T21:05:16.370Z,56.95
2023-04-03T21:08:20.247Z,56.93
2023-04-03T21:11:24.409Z,56.98
2023-04-03T21:14:31.961Z,57.37
2023-04-03T21:16:59.084Z,57.59
2023-04-03T21:19:25.764Z,57.76
2023-04-03T21:21:52.552Z,57.93
2023-04-03T21:24:19.668Z,57.38
2023-04-03T21:26:46.334Z,57.35
2023-04-03T21:29:13.826Z,57.92
2023-04-03T21:31:51.438Z,57.88
2023-04-03T21:34:19.932Z,57.69
2023-04-03T21:36:49.727Z,57.68
2023-04-03T21:39:17.110Z,57.97
2023-04-03T21:41:43.617Z,58.37
2023-04-03T21:44:10.199Z,58.41
2023-04-03T21:46:37.385Z,58.34
2023-04-03T21:49:04.383Z,58.64
2023-04-03T21:51:32.083Z,58.37
2023-04-03T21:53:58.590Z,58.16
2023-04-03T21:56:25.197Z,58.92
2023-04-03T21:58:52.120Z,58.91
2023-04-03T22:01:20.333Z,59.08
2023-04-03T22:03:47.274Z,58.75
2023-04-03T22:06:16.838Z,58.97
2023-04-03T22:08:43.614Z,59.59
2023-04-03T22:11:15.684Z,59.24
2023-04-03T22:13:42.912Z,59.69
2023-04-03T22:16:11.522Z,59.36
2023-04-03T22:18:38.641Z,60.01
2023-04-03T22:21:08.883Z,59.62
2023-04-03T22:23:35.850Z,59.27
2023-04-03T22:26:09.662Z,59.28
2023-04-03T22:28:47.050Z,59.83
2023-04-03T22:31:15.060Z,59.66
2023-04-03T22:33:43.370Z,59.55
2023-04-03T22:36:11.431Z,59.27
2023-04-03T22:38:38.995Z,59.21
2023-04-03T22:41:07.889Z,59.77
2023-04-03T22:43:36.321Z,59.48
2023-04-03T22:46:04.800Z,59.38
2023-04-03T22:48:31.822Z,59.54
2023-04-03T22:51:00.249Z,59.39
2023-04-03T22:53:29.814Z,59.61
2023-04-03T22:56:01.267Z,59.79
2023-04-03T22:58:28.879Z,59.93
2023-04-03T23:01:03.465Z,59.75
2023-04-03T23:03:29.946Z,60.35
2023-04-03T23:05:57.735Z,60.34
2023-04-03T23:08:24.322Z,60.15
2023-04-03T23:10:54.776Z,60.33
2023-04-03T23:13:21.324Z,60.07
2023-04-03T23:15:59.327Z,60.77
2023-04-03T23:18:29.430Z,60.32
2023-04-03T23:20:57.204Z,60.18
2023-04-03T23:23:25.135Z,59.90
2023-04-03T23:25:52.722Z,60.19
2023-04-03T23:28:19.356Z,60.21
2023-04-03T23:30:46.725Z,60.04
2023-04-03T23:33:13.157Z,59.66
2023-04-03T23:35:48.129Z,59.24
2023-04-03T23:38:15.813Z,58.50
2023-04-03T23:40:42.892Z,57.35
2023-04-03T23:43:09.615Z,56.89
2023-04-03T23:45:36.645Z,55.05
2023-04-03T23:48:03.279Z,54.65
2023-04-03T23:50:29.874Z,55.23
2023-04-03T23:52:56.265Z,54.37
2023-04-03T23:55:22.990Z,54.60
2023-04-03T23:57:49.786Z,53.85
